createdAt,value
2022-09-03T00:01:55.928Z,22.43
2022-09-03T00:05:11.815Z,22.33
2022-09-03T00:08:04.090Z,22.28
2022-09-03T00:11:09.804Z,22.19
2022-09-03T00:13:56.895Z,22.24
2022-09-03T00:17:02.810Z,22.12
2022-09-03T00:19:59.793Z,21.94
2022-09-03T00:22:45.181Z,21.86
2022-09-03T00:25:37.787Z,21.77
2022-09-03T00:28:36.781Z,21.64
2022-09-03T00:31:27.529Z,21.55
2022-09-03T00:34:47.762Z,21.57
2022-09-03T00:37:38.202Z,21.55
2022-09-03T00:40:45.761Z,21.47
2022-09-03T00:43:58.642Z,21.41
2022-09-03T00:47:06.758Z,21.46
2022-09-03T00:50:09.791Z,21.52
2022-09-03T00:53:10.845Z,21.56
2022-09-03T00:56:24.743Z,21.55
2022-09-03T00:59:23.740Z,21.60
2022-09-03T01:02:39.853Z,21.63
2022-09-03T01:05:28.913Z,21.61
2022-09-03T01:08:22.822Z,21.61
2022-09-03T01:11:11.997Z,21.44
2022-09-03T01:14:16.731Z,21.40
2022-09-03T01:17:13.729Z,21.35
2022-09-03T01:20:08.118Z,21.22
2022-09-03T01:23:11.696Z,21.15
2022-09-03T01:26:36.741Z,21.08
2022-09-03T01:29:46.722Z,21.07
2022-09-03T01:32:46.705Z,21.07
2022-09-03T01:35:35.259Z,21.10
2022-09-03T01:38:43.713Z,21.14
2022-09-03T01:42:20.219Z,21.09
2022-09-03T01:45:16.729Z,20.98
2022-09-03T01:48:23.747Z,20.94
2022-09-03T01:51:35.861Z,20.76
2022-09-03T01:54:47.735Z,20.56
2022-09-03T01:57:56.791Z,20.48
2022-09-03T02:00:49.701Z,20.40
2022-09-03T02:03:40.840Z,20.39
2022-09-03T02:06:21.149Z,20.31
2022-09-03T02:09:07.690Z,20.23
2022-09-03T02:12:06.675Z,20.20
2022-09-03T02:14:48.430Z,20.16
2022-09-03T02:17:35.649Z,20.08
2022-09-03T02:20:26.657Z,20.03
2022-09-03T02:23:13.640Z,19.98
2022-09-03T02:26:09.682Z,19.96
2022-09-03T02:29:04.652Z,20.00
2022-09-03T02:31:45.357Z,19.90
2022-09-03T02:34:31.679Z,19.86
2022-09-03T02:37:21.650Z,19.80
2022-09-03T02:40:02.245Z,19.74
2022-09-03T02:42:48.638Z,19.68
2022-09-03T02:45:36.635Z,19.65
2022-09-03T02:48:29.638Z,19.55
2022-09-03T02:51:14.120Z,19.55
2022-09-03T02:54:01.614Z,19.49
2022-09-03T02:56:41.730Z,19.45
2022-09-03T02:59:29.619Z,19.36
2022-09-03T03:02:17.705Z,19.30
2022-09-03T03:05:04.607Z,19.14
2022-09-03T03:25:49.645Z,18.42
2022-09-03T03:28:34.069Z,18.61
2022-09-03T03:31:21.741Z,18.76
2022-09-03T03:34:09.657Z,18.94
2022-09-03T03:36:49.762Z,19.07
2022-09-03T03:39:36.657Z,19.08
2022-09-03T03:42:16.751Z,19.10
2022-09-03T03:45:03.695Z,19.19
2022-09-03T03:47:50.670Z,19.12
2022-09-03T03:50:37.626Z,19.09
2022-09-03T03:53:24.629Z,19.07
2022-09-03T03:56:08.025Z,19.03
2022-09-03T03:58:55.584Z,19.02
2022-09-03T04:01:42.651Z,19.04
2022-09-03T04:04:23.729Z,19.18
2022-09-03T04:07:10.615Z,19.26
2022-09-03T04:09:50.779Z,19.29
2022-09-03T04:12:37.623Z,19.23
2022-09-03T04:15:24.605Z,19.30
2022-09-03T04:18:05.521Z,19.40
2022-09-03T04:20:52.618Z,19.47
2022-09-03T04:23:51.555Z,19.51
2022-09-03T04:26:40.624Z,19.59
2022-09-03T04:29:22.118Z,19.47
2022-09-03T04:32:27.574Z,19.47
2022-09-03T04:35:14.586Z,19.59
2022-09-03T04:38:01.579Z,19.53
2022-09-03T04:40:41.684Z,19.47
2022-09-03T04:43:28.558Z,19.47
2022-09-03T04:46:18.650Z,19.63
2022-09-03T04:48:59.127Z,19.76
2022-09-03T04:51:45.571Z,19.80
2022-09-03T04:54:28.089Z,19.91
2022-09-03T04:57:16.559Z,19.96
2022-09-03T05:00:03.587Z,19.93
2022-09-03T05:02:43.637Z,20.01
2022-09-03T05:05:30.531Z,20.08
2022-09-03T05:08:11.339Z,20.04
2022-09-03T05:11:07.535Z,20.07
2022-09-03T05:13:54.567Z,20.03
2022-09-03T05:16:41.769Z,20.31
2022-09-03T05:19:21.560Z,20.34
2022-09-03T05:22:01.919Z,20.42
2022-09-03T05:24:48.500Z,20.44
2022-09-03T05:27:35.522Z,20.60
2022-09-03T05:30:16.632Z,20.40
2022-09-03T05:33:03.529Z,20.15
2022-09-03T05:35:43.630Z,20.15
2022-09-03T05:38:30.538Z,20.56
2022-09-03T05:41:21.510Z,20.62
2022-09-03T05:44:02.207Z,20.89
2022-09-03T05:46:48.510Z,21.01
2022-09-03T05:49:36.497Z,21.19
2022-09-03T05:52:16.864Z,21.03
2022-09-03T05:55:03.462Z,21.01
2022-09-03T05:57:50.520Z,21.19
2022-09-03T06:00:37.495Z,21.06
2022-09-03T06:03:17.731Z,20.70
2022-09-03T06:06:04.497Z,21.10
2022-09-03T06:08:45.053Z,21.21
2022-09-03T06:11:37.439Z,20.88
2022-09-03T06:14:26.467Z,20.50
2022-09-03T06:17:06.927Z,20.80
2022-09-03T06:19:53.452Z,20.50
2022-09-03T06:22:33.904Z,20.61
2022-09-03T06:25:21.443Z,20.43
2022-09-03T06:28:02.383Z,20.91
2022-09-03T06:30:49.507Z,21.08
2022-09-03T06:33:31.518Z,21.17
2022-09-03T06:36:20.456Z,21.86
2022-09-03T06:39:08.464Z,22.68
2022-09-03T06:41:51.919Z,24.38
2022-09-03T06:44:46.432Z,25.62
2022-09-03T06:47:26.569Z,25.61
2022-09-03T06:50:13.456Z,25.95
2022-09-03T06:52:58.558Z,27.03
2022-09-03T06:55:46.405Z,26.45
2022-09-03T06:58:26.651Z,27.52
2022-09-03T07:01:15.527Z,27.11
2022-09-03T07:04:01.067Z,27.64
2022-09-03T07:06:49.410Z,27.34
2022-09-03T07:09:29.518Z,27.87
2022-09-03T07:12:17.406Z,26.11
2022-09-03T07:15:04.399Z,25.32
2022-09-03T07:17:51.413Z,24.65
2022-09-03T07:20:38.493Z,23.55
2022-09-03T07:23:25.991Z,23.48
2022-09-03T07:26:15.419Z,23.61
2022-09-03T07:28:56.675Z,23.64
2022-09-03T07:31:48.448Z,23.36
2022-09-03T07:34:29.507Z,23.67
2022-09-03T07:37:16.390Z,24.80
2022-09-03T07:39:56.538Z,25.07
2022-09-03T07:42:46.416Z,24.78
2022-09-03T07:45:35.371Z,23.83
2022-09-03T07:48:17.885Z,24.19
2022-09-03T07:51:06.384Z,22.53
2022-09-03T07:53:48.822Z,22.11
2022-09-03T07:56:37.340Z,22.19
2022-09-03T07:59:18.231Z,22.52
2022-09-03T08:02:05.368Z,22.73
2022-09-03T08:04:46.064Z,24.91
2022-09-03T08:07:32.370Z,26.89
2022-09-03T08:10:19.348Z,28.18
2022-09-03T08:13:06.385Z,29.18
2022-09-03T08:16:03.433Z,27.59
2022-09-03T08:18:45.067Z,29.20
2022-09-03T08:21:34.332Z,29.58
2022-09-03T08:24:21.393Z,31.66
2022-09-03T08:27:01.871Z,32.12
2022-09-03T08:29:48.334Z,32.97
2022-09-03T08:32:28.746Z,30.97
2022-09-03T08:35:16.357Z,31.33
2022-09-03T08:38:03.344Z,33.57
2022-09-03T08:40:46.213Z,34.29
2022-09-03T08:43:33.303Z,32.87
2022-09-03T08:46:21.366Z,35.12
2022-09-03T08:49:08.341Z,32.14
2022-09-03T08:51:58.308Z,28.53
2022-09-03T08:54:45.291Z,26.36
2022-09-03T08:57:34.292Z,25.37
2022-09-03T09:00:15.690Z,24.40
2022-09-03T09:03:14.334Z,24.20
2022-09-03T09:06:28.481Z,24.09
2022-09-03T09:09:17.273Z,25.07
2022-09-03T09:12:21.412Z,24.88
2022-09-03T09:15:01.309Z,28.09
2022-09-03T09:18:14.296Z,31.37
2022-09-03T09:21:18.988Z,32.77
2022-09-03T09:24:18.277Z,33.14
2022-09-03T09:27:18.312Z,33.83
2022-09-03T09:30:08.304Z,32.86
2022-09-03T09:32:48.391Z,32.29
2022-09-03T09:35:35.287Z,33.53
2022-09-03T09:38:16.608Z,35.12
2022-09-03T09:41:06.288Z,33.58
2022-09-03T09:43:48.119Z,35.87
2022-09-03T09:46:50.288Z,35.56
2022-09-03T09:49:52.449Z,35.29
2022-09-03T09:52:40.274Z,32.48
2022-09-03T09:55:26.721Z,32.66
2022-09-03T09:58:17.268Z,33.31
2022-09-03T10:01:20.281Z,34.89
2022-09-03T10:04:21.211Z,35.85
2022-09-03T10:07:10.216Z,35.14
2022-09-03T10:10:14.250Z,29.89
2022-09-03T10:13:09.578Z,28.85
2022-09-03T10:16:05.318Z,27.01
2022-09-03T10:19:01.260Z,26.07
2022-09-03T10:21:53.786Z,27.26
2022-09-03T10:25:03.265Z,26.22
2022-09-03T10:27:53.254Z,27.77
2022-09-03T10:30:33.338Z,28.13
2022-09-03T10:33:34.298Z,30.13
2022-09-03T10:36:30.220Z,30.41
2022-09-03T10:39:47.734Z,31.08
2022-09-03T10:43:06.277Z,31.15
2022-09-03T10:45:59.217Z,30.77
2022-09-03T10:48:42.664Z,28.84
2022-09-03T10:51:36.229Z,27.53
2022-09-03T10:54:39.186Z,27.12
2022-09-03T10:57:42.214Z,27.56
2022-09-03T11:00:24.429Z,26.72
2022-09-03T11:03:32.192Z,25.83
2022-09-03T11:06:49.183Z,24.20
2022-09-03T11:09:32.172Z,24.48
2022-09-03T11:12:28.219Z,25.34
2022-09-03T11:15:31.528Z,28.91
2022-09-03T11:18:32.182Z,31.54
2022-09-03T11:21:16.808Z,29.78
2022-09-03T11:24:08.177Z,27.04
2022-09-03T11:27:03.306Z,25.93
2022-09-03T11:30:04.198Z,24.90
2022-09-03T11:32:57.194Z,23.69
2022-09-03T11:35:41.086Z,23.83
2022-09-03T11:38:31.173Z,23.80
2022-09-03T11:41:37.173Z,23.76
2022-09-03T11:44:19.083Z,23.69
2022-09-03T11:47:13.144Z,23.52
2022-09-03T11:50:11.168Z,23.09
2022-09-03T11:52:51.983Z,23.32
2022-09-03T11:55:56.201Z,23.76
2022-09-03T11:58:40.706Z,23.65
2022-09-03T12:01:27.167Z,23.48
2022-09-03T12:04:11.290Z,23.33
2022-09-03T12:07:10.120Z,23.14
2022-09-03T12:10:11.314Z,22.82
2022-09-03T12:13:17.158Z,22.44
2022-09-03T12:16:25.142Z,22.14
2022-09-03T12:19:20.122Z,21.94
2022-09-03T12:22:11.122Z,22.06
2022-09-03T12:25:05.089Z,22.50
2022-09-03T12:27:53.126Z,22.37
2022-09-03T12:30:33.300Z,22.85
2022-09-03T12:33:24.121Z,22.62
2022-09-03T12:36:12.092Z,22.06
2022-09-03T12:39:14.510Z,22.09
2022-09-03T12:42:18.090Z,21.84
2022-09-03T12:45:22.086Z,22.05
2022-09-03T12:48:09.117Z,21.71
2022-09-03T12:54:13.292Z,21.75
2022-09-03T12:57:07.080Z,21.70
2022-09-03T12:59:47.175Z,21.57
2022-09-03T13:02:43.051Z,21.71
2022-09-03T13:05:34.060Z,21.73
2022-09-03T13:08:21.740Z,21.89
2022-09-03T13:11:12.086Z,22.13
2022-09-03T13:14:06.808Z,21.98
2022-09-03T13:17:01.155Z,21.79
2022-09-03T13:19:55.081Z,21.51
2022-09-03T13:22:57.061Z,21.75
2022-09-03T13:26:06.992Z,22.02
2022-09-03T13:29:08.716Z,21.79
2022-09-03T13:32:06.136Z,22.26
2022-09-03T13:34:55.850Z,22.57
2022-09-03T13:37:59.021Z,22.58
2022-09-03T13:40:50.334Z,22.73
2022-09-03T13:43:51.029Z,22.59
2022-09-03T13:46:48.044Z,22.26
2022-09-03T13:50:21.888Z,22.01
2022-09-03T13:53:29.054Z,21.63
2022-09-03T13:56:34.011Z,21.60
2022-09-03T13:59:26.186Z,21.31
2022-09-03T14:02:34.065Z,21.05
2022-09-03T14:05:32.993Z,21.18
2022-09-03T14:08:35.496Z,21.04
2022-09-03T14:11:32.984Z,20.73
2022-09-03T14:14:54.005Z,20.41
2022-09-03T14:17:47.114Z,20.33
2022-09-03T14:20:45.977Z,20.40
2022-09-03T14:23:45.080Z,20.56
2022-09-03T14:26:39.945Z,20.68
2022-09-03T14:29:26.990Z,20.72
2022-09-03T14:32:32.067Z,20.97
2022-09-03T14:35:33.019Z,21.20
2022-09-03T14:38:48.003Z,21.09
2022-09-03T14:41:50.555Z,20.60
2022-09-03T14:44:49.941Z,20.54
2022-09-03T14:48:10.960Z,20.53
2022-09-03T14:50:57.957Z,20.41
2022-09-03T14:54:09.950Z,20.10
2022-09-03T14:57:13.421Z,19.92
2022-09-03T15:00:05.962Z,19.60
2022-09-03T15:03:13.921Z,19.49
2022-09-03T15:06:17.077Z,19.29
2022-09-03T15:09:37.930Z,19.39
2022-09-03T15:28:34.526Z,18.63
2022-09-03T15:31:23.100Z,18.67
2022-09-03T15:34:46.240Z,18.66
2022-09-03T15:37:32.793Z,18.56
2022-09-03T15:40:55.172Z,18.71
2022-09-03T15:43:35.677Z,18.73
2022-09-03T15:46:47.230Z,18.63
2022-09-03T15:49:32.047Z,18.55
2022-09-03T15:52:41.204Z,18.61
2022-09-03T15:55:49.186Z,18.63
2022-09-03T15:58:59.170Z,18.35
2022-09-03T16:01:59.558Z,18.18
2022-09-03T16:04:54.174Z,18.05
2022-09-03T16:07:44.158Z,17.94
2022-09-03T16:10:36.182Z,17.76
2022-09-03T16:13:51.172Z,17.63
2022-09-03T16:16:57.161Z,17.65
2022-09-03T16:19:43.550Z,17.74
2022-09-03T16:22:36.204Z,17.72
2022-09-03T16:25:58.167Z,17.86
2022-09-03T16:29:19.009Z,17.84
2022-09-03T16:32:23.158Z,17.75
2022-09-03T16:35:27.856Z,17.74
2022-09-03T16:38:32.145Z,17.65
2022-09-03T16:41:30.864Z,17.53
2022-09-03T16:44:21.113Z,17.48
2022-09-03T16:47:25.129Z,17.62
2022-09-03T16:50:43.120Z,17.46
2022-09-03T16:53:50.185Z,17.35
2022-09-03T16:57:06.134Z,17.33
2022-09-03T17:00:02.680Z,17.32
2022-09-03T17:03:10.101Z,17.31
2022-09-03T17:06:15.080Z,17.26
2022-09-03T17:09:11.108Z,17.17
2022-09-03T17:11:54.382Z,17.29
2022-09-03T17:15:01.113Z,17.10
2022-09-03T17:18:36.049Z,17.07
2022-09-03T17:22:09.057Z,17.14
2022-09-03T17:25:22.102Z,17.18
2022-09-03T17:28:24.883Z,17.43
2022-09-03T17:31:11.152Z,17.35
2022-09-03T17:34:09.040Z,17.39
2022-09-03T17:37:19.053Z,17.34
2022-09-03T17:40:40.212Z,17.19
2022-09-03T17:43:20.136Z,17.13
2022-09-03T17:46:22.644Z,17.18
2022-09-03T17:49:16.095Z,17.20
2022-09-03T17:52:07.486Z,17.18
2022-09-03T17:54:59.049Z,17.10
2022-09-03T17:57:46.928Z,17.22
2022-09-03T18:00:52.066Z,17.21
2022-09-03T18:03:45.916Z,17.22
2022-09-03T18:07:10.042Z,17.07
2022-09-03T18:10:32.052Z,17.01
2022-09-03T18:13:23.639Z,17.01
2022-09-03T18:16:22.090Z,16.99
2022-09-03T18:19:31.273Z,16.98
2022-09-03T18:22:36.017Z,16.93
2022-09-03T18:25:38.912Z,16.99
2022-09-03T18:28:51.026Z,16.92
2022-09-03T18:31:49.835Z,16.90
2022-09-03T18:35:04.004Z,16.91
2022-09-03T18:38:02.650Z,16.96
2022-09-03T18:41:50.036Z,17.17
2022-09-03T18:45:24.339Z,17.13
2022-09-03T18:48:37.990Z,17.13
2022-09-03T18:51:52.992Z,17.06
2022-09-03T18:55:08.267Z,16.91
2022-09-03T18:58:12.601Z,17.02
2022-09-03T19:01:30.069Z,17.17
2022-09-03T19:04:57.844Z,17.18
2022-09-03T19:08:12.981Z,17.23
2022-09-03T19:11:24.683Z,17.06
2022-09-03T19:14:40.957Z,17.12
2022-09-03T19:18:10.953Z,17.09
2022-09-03T19:21:46.741Z,17.04
2022-09-03T19:24:54.973Z,17.12
2022-09-03T19:28:45.933Z,17.06
2022-09-03T19:32:12.934Z,17.12
2022-09-03T19:35:41.945Z,17.00
2022-09-03T19:38:50.131Z,16.95
2022-09-03T19:42:09.909Z,17.03
2022-09-03T19:45:30.508Z,17.07
2022-09-03T19:49:17.898Z,17.08
2022-09-03T19:52:41.002Z,17.25
2022-09-03T19:55:46.833Z,17.16
2022-09-03T19:58:56.897Z,17.07
2022-09-03T20:02:07.746Z,17.24
2022-09-03T21:10:38.789Z,16.99
2022-09-03T21:13:40.370Z,16.84
2022-09-03T21:16:51.827Z,16.81
2022-09-03T21:19:56.778Z,16.94
2022-09-03T21:22:52.809Z,17.04
2022-09-03T21:25:45.795Z,17.03
2022-09-03T21:29:06.938Z,17.08
2022-09-03T21:32:16.837Z,17.09
2022-09-03T21:35:08.956Z,17.01
2022-09-03T21:38:18.787Z,16.94
2022-09-03T21:41:15.756Z,17.13
2022-09-03T21:44:10.752Z,17.17
2022-09-03T21:47:07.779Z,17.11
2022-09-03T21:49:57.410Z,17.17
2022-09-03T21:53:23.762Z,17.10
2022-09-03T21:56:37.154Z,17.14
2022-09-03T21:59:52.782Z,17.02
2022-09-03T22:02:42.868Z,16.90
2022-09-03T22:05:23.890Z,16.97
2022-09-03T22:08:18.751Z,17.00
2022-09-03T22:11:29.748Z,17.01
2022-09-03T22:14:16.913Z,16.94
2022-09-03T22:17:21.757Z,16.98
2022-09-03T22:20:03.669Z,16.91
2022-09-03T22:23:03.722Z,16.90
2022-09-03T22:26:28.766Z,16.79
2022-09-03T22:29:16.857Z,16.74
2022-09-03T22:32:10.739Z,16.67
2022-09-03T22:35:06.738Z,16.72
2022-09-03T22:38:19.013Z,16.71
2022-09-03T22:41:24.737Z,16.72
2022-09-03T22:44:33.669Z,16.63
2022-09-03T22:47:39.736Z,16.65
2022-09-03T22:50:20.705Z,16.62
2022-09-03T22:53:44.716Z,16.48
2022-09-03T22:56:32.727Z,16.43
2022-09-03T22:59:51.714Z,16.51
2022-09-03T23:02:32.868Z,16.48
2022-09-03T23:05:50.703Z,16.47
2022-09-03T23:08:45.419Z,16.47
2022-09-03T23:11:50.715Z,16.56
2022-09-03T23:14:43.653Z,16.52
2022-09-03T23:20:31.707Z,16.73
2022-09-03T23:23:22.848Z,16.50
2022-09-03T23:26:29.665Z,16.47
2022-09-03T23:29:26.215Z,16.50
2022-09-03T23:32:12.707Z,16.48
2022-09-03T23:34:59.689Z,16.57
2022-09-03T23:38:01.683Z,16.50
2022-09-03T23:40:53.800Z,16.45
2022-09-03T23:44:12.651Z,16.42
2022-09-03T23:47:31.633Z,16.29
2022-09-03T23:50:32.629Z,16.27
2022-09-03T23:53:37.763Z,16.10
2022-09-03T23:56:43.586Z,16.12
2022-09-03T23:59:34.658Z,15.99
